Nearby METAR Reports

 

LBGO - Gorna Orechovist, Bulgaria
Distance from station: NE 57km
Updated: 27/10/2020 17:00
Mostly cloudy
Mostly cloudy
 Wind from W
Wind: W 7 km/h
Temperature: 18°C
Dew Point: 13°C
Humidity: 73%
Barometer: 1013 hPa
Clouds: Mostly cloudy
Visibility: 10 km
Cloud details: Mostly cloudy 1737 m
2020/10/27 15:00 LBGO 271500Z AUTO 28004KT 260V320 9999 BKN057 18/13 Q1013 NOSIG